sensor_id;sensor_type;location;lat;lon;timestamp;P1;durP1;ratioP1;P2;durP2;ratioP2
63784;SDS011;49927;48.146;11.420;2023-02-01T00:00:54;9.48;;;3.38;;
63784;SDS011;49927;48.146;11.420;2023-02-01T00:03:19;9.23;;;3.70;;
63784;SDS011;49927;48.146;11.420;2023-02-01T00:05:45;7.05;;;3.90;;
63784;SDS011;49927;48.146;11.420;2023-02-01T00:08:20;7.10;;;3.47;;
63784;SDS011;49927;48.146;11.420;2023-02-01T00:10:45;6.18;;;4.03;;
63784;SDS011;49927;48.146;11.420;2023-02-01T00:13:11;6.03;;;3.78;;
63784;SDS011;49927;48.146;11.420;2023-02-01T00:15:37;10.13;;;4.28;;
63784;SDS011;49927;48.146;11.420;2023-02-01T00:18:03;6.45;;;3.42;;
63784;SDS011;49927;48.146;11.420;2023-02-01T00:20:29;7.28;;;3.40;;
63784;SDS011;49927;48.146;11.420;2023-02-01T00:22:54;5.90;;;3.08;;
63784;SDS011;49927;48.146;11.420;2023-02-01T00:25:19;4.57;;;3.00;;
63784;SDS011;49927;48.146;11.420;2023-02-01T00:27:48;6.65;;;3.60;;
63784;SDS011;49927;48.146;11.420;2023-02-01T00:30:13;7.53;;;3.42;;
63784;SDS011;49927;48.146;11.420;2023-02-01T00:32:40;7.63;;;3.60;;
63784;SDS011;49927;48.146;11.420;2023-02-01T00:35:06;7.55;;;3.80;;
63784;SDS011;49927;48.146;11.420;2023-02-01T00:37:33;6.70;;;3.83;;
63784;SDS011;49927;48.146;11.420;2023-02-01T00:39:58;4.70;;;3.63;;
63784;SDS011;49927;48.146;11.420;2023-02-01T00:42:24;5.10;;;3.45;;
63784;SDS011;49927;48.146;11.420;2023-02-01T00:44:49;7.68;;;4.20;;
63784;SDS011;49927;48.146;11.420;2023-02-01T00:47:15;8.82;;;4.40;;
63784;SDS011;49927;48.146;11.420;2023-02-01T00:49:42;8.88;;;4.22;;
63784;SDS011;49927;48.146;11.420;2023-02-01T00:52:07;10.05;;;4.60;;
63784;SDS011;49927;48.146;11.420;2023-02-01T00:54:33;7.75;;;4.05;;
63784;SDS011;49927;48.146;11.420;2023-02-01T00:56:58;9.30;;;4.57;;
63784;SDS011;49927;48.146;11.420;2023-02-01T00:59:24;9.07;;;4.78;;
63784;SDS011;49927;48.146;11.420;2023-02-01T01:01:49;11.90;;;4.53;;
63784;SDS011;49927;48.146;11.420;2023-02-01T01:04:15;8.63;;;4.68;;
63784;SDS011;49927;48.146;11.420;2023-02-01T01:06:41;10.15;;;5.40;;
63784;SDS011;49927;48.146;11.420;2023-02-01T01:09:08;10.50;;;4.65;;
63784;SDS011;49927;48.146;11.420;2023-02-01T01:11:35;8.80;;;5.10;;
63784;SDS011;49927;48.146;11.420;2023-02-01T01:14:01;8.25;;;4.53;;
63784;SDS011;49927;48.146;11.420;2023-02-01T01:16:28;8.57;;;4.80;;
63784;SDS011;49927;48.146;11.420;2023-02-01T01:18:55;9.10;;;4.63;;
63784;SDS011;49927;48.146;11.420;2023-02-01T01:21:21;8.23;;;4.78;;
63784;SDS011;49927;48.146;11.420;2023-02-01T01:23:48;8.68;;;5.47;;
63784;SDS011;49927;48.146;11.420;2023-02-01T01:26:14;8.88;;;5.15;;
63784;SDS011;49927;48.146;11.420;2023-02-01T01:28:41;8.30;;;4.47;;
63784;SDS011;49927;48.146;11.420;2023-02-01T01:31:07;7.43;;;4.22;;
63784;SDS011;49927;48.146;11.420;2023-02-01T01:33:33;9.82;;;5.55;;
63784;SDS011;49927;48.146;11.420;2023-02-01T01:35:58;9.20;;;5.22;;
63784;SDS011;49927;48.146;11.420;2023-02-01T01:38:24;9.32;;;5.30;;
63784;SDS011;49927;48.146;11.420;2023-02-01T01:40:51;10.75;;;6.65;;
63784;SDS011;49927;48.146;11.420;2023-02-01T01:43:18;10.07;;;6.15;;
63784;SDS011;49927;48.146;11.420;2023-02-01T01:45:45;10.82;;;6.00;;
63784;SDS011;49927;48.146;11.420;2023-02-01T01:48:11;8.43;;;5.60;;
63784;SDS011;49927;48.146;11.420;2023-02-01T01:50:39;11.52;;;6.53;;
63784;SDS011;49927;48.146;11.420;2023-02-01T01:53:08;9.85;;;6.00;;
63784;SDS011;49927;48.146;11.420;2023-02-01T01:55:36;14.23;;;6.32;;
63784;SDS011;49927;48.146;11.420;2023-02-01T01:58:05;12.38;;;7.38;;
63784;SDS011;49927;48.146;11.420;2023-02-01T02:00:32;11.50;;;5.93;;
63784;SDS011;49927;48.146;11.420;2023-02-01T02:02:58;14.52;;;7.40;;
63784;SDS011;49927;48.146;11.420;2023-02-01T02:05:25;11.55;;;6.97;;
63784;SDS011;49927;48.146;11.420;2023-02-01T02:07:52;13.75;;;7.35;;
63784;SDS011;49927;48.146;11.420;2023-02-01T02:10:18;12.95;;;6.50;;
63784;SDS011;49927;48.146;11.420;2023-02-01T02:12:44;15.45;;;7.43;;
63784;SDS011;49927;48.146;11.420;2023-02-01T02:15:13;12.70;;;6.93;;
63784;SDS011;49927;48.146;11.420;2023-02-01T02:17:40;12.52;;;6.03;;
63784;SDS011;49927;48.146;11.420;2023-02-01T02:20:20;12.60;;;6.85;;
63784;SDS011;49927;48.146;11.420;2023-02-01T02:26:02;12.05;;;6.55;;
63784;SDS011;49927;48.146;11.420;2023-02-01T02:28:47;8.98;;;5.05;;
63784;SDS011;49927;48.146;11.420;2023-02-01T02:31:33;10.63;;;5.45;;
63784;SDS011;49927;48.146;11.420;2023-02-01T02:34:09;10.82;;;5.70;;
63784;SDS011;49927;48.146;11.420;2023-02-01T02:36:42;15.02;;;6.82;;
63784;SDS011;49927;48.146;11.420;2023-02-01T02:39:13;16.63;;;6.97;;
63784;SDS011;49927;48.146;11.420;2023-02-01T02:41:46;13.52;;;6.18;;
63784;SDS011;49927;48.146;11.420;2023-02-01T02:44:17;9.68;;;5.65;;
63784;SDS011;49927;48.146;11.420;2023-02-01T02:46:46;10.10;;;6.70;;
63784;SDS011;49927;48.146;11.420;2023-02-01T02:49:15;11.02;;;5.55;;
63784;SDS011;49927;48.146;11.420;2023-02-01T02:51:45;12.10;;;6.45;;
63784;SDS011;49927;48.146;11.420;2023-02-01T02:54:13;10.25;;;5.88;;
63784;SDS011;49927;48.146;11.420;2023-02-01T02:56:40;9.63;;;5.70;;
63784;SDS011;49927;48.146;11.420;2023-02-01T02:59:06;14.00;;;6.15;;
63784;SDS011;49927;48.146;11.420;2023-02-01T03:01:32;11.18;;;5.82;;
63784;SDS011;49927;48.146;11.420;2023-02-01T03:03:58;9.70;;;5.47;;
63784;SDS011;49927;48.146;11.420;2023-02-01T03:06:25;9.52;;;5.60;;
63784;SDS011;49927;48.146;11.420;2023-02-01T03:08:50;7.72;;;5.05;;
63784;SDS011;49927;48.146;11.420;2023-02-01T03:11:16;12.60;;;5.68;;
63784;SDS011;49927;48.146;11.420;2023-02-01T03:13:43;8.23;;;5.13;;
63784;SDS011;49927;48.146;11.420;2023-02-01T03:16:12;8.95;;;5.07;;
63784;SDS011;49927;48.146;11.420;2023-02-01T03:18:42;9.32;;;4.88;;
63784;SDS011;49927;48.146;11.420;2023-02-01T03:21:12;8.70;;;4.75;;
63784;SDS011;49927;48.146;11.420;2023-02-01T03:23:43;9.68;;;5.43;;
63784;SDS011;49927;48.146;11.420;2023-02-01T03:26:10;9.70;;;5.13;;
63784;SDS011;49927;48.146;11.420;2023-02-01T03:28:37;8.60;;;5.60;;
63784;SDS011;49927;48.146;11.420;2023-02-01T03:31:07;8.57;;;5.10;;
63784;SDS011;49927;48.146;11.420;2023-02-01T03:33:33;12.25;;;5.30;;
63784;SDS011;49927;48.146;11.420;2023-02-01T03:36:00;11.70;;;5.18;;
63784;SDS011;49927;48.146;11.420;2023-02-01T03:38:30;8.18;;;5.53;;
63784;SDS011;49927;48.146;11.420;2023-02-01T03:41:01;8.38;;;4.47;;
63784;SDS011;49927;48.146;11.420;2023-02-01T03:43:30;8.80;;;5.47;;
63784;SDS011;49927;48.146;11.420;2023-02-01T03:46:00;8.70;;;4.70;;
63784;SDS011;49927;48.146;11.420;2023-02-01T03:48:28;9.32;;;5.88;;
63784;SDS011;49927;48.146;11.420;2023-02-01T03:50:55;9.07;;;5.60;;
63784;SDS011;49927;48.146;11.420;2023-02-01T03:53:22;9.52;;;5.22;;
63784;SDS011;49927;48.146;11.420;2023-02-01T03:55:48;8.10;;;4.70;;
63784;SDS011;49927;48.146;11.420;2023-02-01T03:58:16;10.90;;;5.03;;
63784;SDS011;49927;48.146;11.420;2023-02-01T04:00:44;8.18;;;4.90;;
63784;SDS011;49927;48.146;11.420;2023-02-01T04:03:10;9.40;;;5.75;;
63784;SDS011;49927;48.146;11.420;2023-02-01T04:05:36;7.68;;;5.07;;
63784;SDS011;49927;48.146;11.420;2023-02-01T04:08:01;12.18;;;5.93;;
63784;SDS011;49927;48.146;11.420;2023-02-01T04:10:27;9.32;;;5.47;;
63784;SDS011;49927;48.146;11.420;2023-02-01T04:12:53;10.38;;;5.03;;
63784;SDS011;49927;48.146;11.420;2023-02-01T04:15:20;7.88;;;4.80;;
63784;SDS011;49927;48.146;11.420;2023-02-01T04:17:45;9.18;;;5.18;;
63784;SDS011;49927;48.146;11.420;2023-02-01T04:20:11;10.02;;;5.18;;
63784;SDS011;49927;48.146;11.420;2023-02-01T04:22:36;11.50;;;5.93;;
63784;SDS011;49927;48.146;11.420;2023-02-01T04:25:02;8.50;;;5.57;;
63784;SDS011;49927;48.146;11.420;2023-02-01T04:27:28;8.25;;;5.63;;
63784;SDS011;49927;48.146;11.420;2023-02-01T04:29:53;15.30;;;5.57;;
63784;SDS011;49927;48.146;11.420;2023-02-01T04:32:20;6.53;;;4.70;;
63784;SDS011;49927;48.146;11.420;2023-02-01T04:34:46;9.85;;;6.43;;
63784;SDS011;49927;48.146;11.420;2023-02-01T04:37:11;8.57;;;5.07;;
63784;SDS011;49927;48.146;11.420;2023-02-01T04:39:37;13.20;;;5.07;;
63784;SDS011;49927;48.146;11.420;2023-02-01T04:42:02;7.78;;;4.90;;
63784;SDS011;49927;48.146;11.420;2023-02-01T04:44:28;10.27;;;5.38;;
63784;SDS011;49927;48.146;11.420;2023-02-01T04:46:53;6.72;;;4.70;;
63784;SDS011;49927;48.146;11.420;2023-02-01T04:49:20;10.18;;;5.38;;
63784;SDS011;49927;48.146;11.420;2023-02-01T04:51:46;10.75;;;5.40;;
63784;SDS011;49927;48.146;11.420;2023-02-01T04:54:12;11.40;;;6.40;;
63784;SDS011;49927;48.146;11.420;2023-02-01T04:56:38;9.65;;;5.15;;
63784;SDS011;49927;48.146;11.420;2023-02-01T04:59:03;11.05;;;5.72;;
63784;SDS011;49927;48.146;11.420;2023-02-01T05:01:29;7.88;;;5.05;;
63784;SDS011;49927;48.146;11.420;2023-02-01T05:03:55;12.80;;;6.28;;
63784;SDS011;49927;48.146;11.420;2023-02-01T05:06:22;11.02;;;5.57;;
63784;SDS011;49927;48.146;11.420;2023-02-01T05:08:47;9.90;;;5.68;;
63784;SDS011;49927;48.146;11.420;2023-02-01T05:11:13;10.88;;;6.55;;
63784;SDS011;49927;48.146;11.420;2023-02-01T05:13:39;9.57;;;5.47;;
63784;SDS011;49927;48.146;11.420;2023-02-01T05:16:05;9.95;;;6.07;;
63784;SDS011;49927;48.146;11.420;2023-02-01T05:18:30;10.27;;;5.65;;
63784;SDS011;49927;48.146;11.420;2023-02-01T05:20:56;12.02;;;6.30;;
63784;SDS011;49927;48.146;11.420;2023-02-01T05:23:23;9.77;;;6.03;;
63784;SDS011;49927;48.146;11.420;2023-02-01T05:25:48;10.15;;;5.68;;
63784;SDS011;49927;48.146;11.420;2023-02-01T05:28:14;10.05;;;5.28;;
63784;SDS011;49927;48.146;11.420;2023-02-01T05:30:39;10.95;;;6.50;;
63784;SDS011;49927;48.146;11.420;2023-02-01T05:33:05;8.70;;;5.43;;
63784;SDS011;49927;48.146;11.420;2023-02-01T05:35:30;13.32;;;6.10;;
63784;SDS011;49927;48.146;11.420;2023-02-01T05:37:56;10.95;;;6.05;;
63784;SDS011;49927;48.146;11.420;2023-02-01T05:40:23;8.02;;;4.75;;
63784;SDS011;49927;48.146;11.420;2023-02-01T05:42:48;8.63;;;6.07;;
63784;SDS011;49927;48.146;11.420;2023-02-01T05:45:14;11.27;;;6.10;;
63784;SDS011;49927;48.146;11.420;2023-02-01T05:47:39;10.20;;;5.43;;
63784;SDS011;49927;48.146;11.420;2023-02-01T05:50:05;11.93;;;6.72;;
63784;SDS011;49927;48.146;11.420;2023-02-01T05:52:31;10.73;;;5.88;;
63784;SDS011;49927;48.146;11.420;2023-02-01T05:54:57;11.00;;;6.95;;
63784;SDS011;49927;48.146;11.420;2023-02-01T05:57:24;10.98;;;6.20;;
63784;SDS011;49927;48.146;11.420;2023-02-01T05:59:49;10.48;;;6.28;;
63784;SDS011;49927;48.146;11.420;2023-02-01T06:02:15;10.80;;;6.45;;
63784;SDS011;49927;48.146;11.420;2023-02-01T06:04:41;12.18;;;5.35;;
63784;SDS011;49927;48.146;11.420;2023-02-01T06:07:06;11.00;;;6.05;;
63784;SDS011;49927;48.146;11.420;2023-02-01T06:09:32;12.48;;;6.03;;
63784;SDS011;49927;48.146;11.420;2023-02-01T06:11:58;11.65;;;5.90;;
63784;SDS011;49927;48.146;11.420;2023-02-01T06:14:25;10.13;;;5.88;;
63784;SDS011;49927;48.146;11.420;2023-02-01T06:16:50;10.55;;;5.85;;
63784;SDS011;49927;48.146;11.420;2023-02-01T06:19:16;12.30;;;5.68;;
63784;SDS011;49927;48.146;11.420;2023-02-01T06:21:41;9.38;;;5.28;;
63784;SDS011;49927;48.146;11.420;2023-02-01T06:24:07;9.27;;;5.82;;
63784;SDS011;49927;48.146;11.420;2023-02-01T06:26:33;9.27;;;5.32;;
63784;SDS011;49927;48.146;11.420;2023-02-01T06:28:58;7.50;;;5.30;;
63784;SDS011;49927;48.146;11.420;2023-02-01T06:31:25;10.90;;;6.07;;
63784;SDS011;49927;48.146;11.420;2023-02-01T06:33:51;10.23;;;5.80;;
63784;SDS011;49927;48.146;11.420;2023-02-01T06:36:17;10.52;;;5.90;;
63784;SDS011;49927;48.146;11.420;2023-02-01T06:38:42;14.40;;;6.78;;
63784;SDS011;49927;48.146;11.420;2023-02-01T06:41:08;19.25;;;6.93;;
63784;SDS011;49927;48.146;11.420;2023-02-01T06:43:34;11.55;;;6.13;;
63784;SDS011;49927;48.146;11.420;2023-02-01T06:45:59;9.32;;;5.25;;
63784;SDS011;49927;48.146;11.420;2023-02-01T06:48:27;9.38;;;5.85;;
63784;SDS011;49927;48.146;11.420;2023-02-01T06:50:52;10.60;;;5.72;;
63784;SDS011;49927;48.146;11.420;2023-02-01T06:53:18;9.90;;;6.00;;
63784;SDS011;49927;48.146;11.420;2023-02-01T06:55:50;11.48;;;5.13;;
63784;SDS011;49927;48.146;11.420;2023-02-01T06:58:16;11.18;;;5.65;;
63784;SDS011;49927;48.146;11.420;2023-02-01T07:00:42;11.85;;;5.43;;
63784;SDS011;49927;48.146;11.420;2023-02-01T07:03:07;10.85;;;5.07;;
63784;SDS011;49927;48.146;11.420;2023-02-01T07:05:34;11.20;;;5.75;;
63784;SDS011;49927;48.146;11.420;2023-02-01T07:08:00;9.13;;;4.75;;
63784;SDS011;49927;48.146;11.420;2023-02-01T07:10:25;11.63;;;5.65;;
63784;SDS011;49927;48.146;11.420;2023-02-01T07:12:51;7.00;;;4.35;;
63784;SDS011;49927;48.146;11.420;2023-02-01T07:15:16;8.80;;;5.38;;
63784;SDS011;49927;48.146;11.420;2023-02-01T07:17:42;7.80;;;4.85;;
63784;SDS011;49927;48.146;11.420;2023-02-01T07:20:08;9.68;;;5.20;;
63784;SDS011;49927;48.146;11.420;2023-02-01T07:22:35;6.13;;;3.92;;
63784;SDS011;49927;48.146;11.420;2023-02-01T07:25:01;8.13;;;4.45;;
63784;SDS011;49927;48.146;11.420;2023-02-01T07:27:26;7.72;;;4.05;;
63784;SDS011;49927;48.146;11.420;2023-02-01T07:29:52;8.20;;;4.47;;
63784;SDS011;49927;48.146;11.420;2023-02-01T07:32:17;8.23;;;4.13;;
63784;SDS011;49927;48.146;11.420;2023-02-01T07:34:43;9.65;;;4.50;;
63784;SDS011;49927;48.146;11.420;2023-02-01T07:37:08;8.75;;;4.47;;
63784;SDS011;49927;48.146;11.420;2023-02-01T07:39:35;7.35;;;4.35;;
63784;SDS011;49927;48.146;11.420;2023-02-01T07:42:01;8.30;;;4.68;;
63784;SDS011;49927;48.146;11.420;2023-02-01T07:44:26;10.75;;;4.28;;
63784;SDS011;49927;48.146;11.420;2023-02-01T07:46:52;10.13;;;4.65;;
63784;SDS011;49927;48.146;11.420;2023-02-01T07:49:17;11.18;;;6.45;;
63784;SDS011;49927;48.146;11.420;2023-02-01T07:51:43;8.70;;;5.05;;
63784;SDS011;49927;48.146;11.420;2023-02-01T07:54:08;8.80;;;3.95;;
63784;SDS011;49927;48.146;11.420;2023-02-01T07:56:35;7.43;;;3.58;;
63784;SDS011;49927;48.146;11.420;2023-02-01T07:59:01;5.82;;;3.50;;
63784;SDS011;49927;48.146;11.420;2023-02-01T08:01:27;4.97;;;3.00;;
63784;SDS011;49927;48.146;11.420;2023-02-01T08:03:54;4.07;;;3.17;;
63784;SDS011;49927;48.146;11.420;2023-02-01T08:06:20;5.38;;;2.80;;
63784;SDS011;49927;48.146;11.420;2023-02-01T08:08:46;5.05;;;3.10;;
63784;SDS011;49927;48.146;11.420;2023-02-01T08:11:12;5.70;;;3.25;;
63784;SDS011;49927;48.146;11.420;2023-02-01T08:13:40;6.63;;;3.20;;
63784;SDS011;49927;48.146;11.420;2023-02-01T08:16:06;6.57;;;3.25;;
63784;SDS011;49927;48.146;11.420;2023-02-01T08:18:33;4.88;;;2.95;;
63784;SDS011;49927;48.146;11.420;2023-02-01T08:21:02;5.25;;;2.85;;
63784;SDS011;49927;48.146;11.420;2023-02-01T08:23:28;6.35;;;3.25;;
63784;SDS011;49927;48.146;11.420;2023-02-01T08:25:54;6.07;;;3.40;;
63784;SDS011;49927;48.146;11.420;2023-02-01T08:28:20;3.80;;;2.60;;
63784;SDS011;49927;48.146;11.420;2023-02-01T08:30:47;6.38;;;3.42;;
63784;SDS011;49927;48.146;11.420;2023-02-01T08:33:12;3.85;;;2.80;;
63784;SDS011;49927;48.146;11.420;2023-02-01T08:35:38;9.52;;;3.75;;
63784;SDS011;49927;48.146;11.420;2023-02-01T08:38:03;8.73;;;3.78;;
63784;SDS011;49927;48.146;11.420;2023-02-01T08:40:29;8.18;;;3.75;;
63784;SDS011;49927;48.146;11.420;2023-02-01T08:42:55;7.18;;;3.13;;
63784;SDS011;49927;48.146;11.420;2023-02-01T08:45:21;4.20;;;2.70;;
63784;SDS011;49927;48.146;11.420;2023-02-01T08:47:50;4.95;;;3.22;;
63784;SDS011;49927;48.146;11.420;2023-02-01T08:50:16;11.40;;;3.85;;
63784;SDS011;49927;48.146;11.420;2023-02-01T08:52:42;7.63;;;3.85;;
63784;SDS011;49927;48.146;11.420;2023-02-01T08:55:08;5.00;;;3.08;;
63784;SDS011;49927;48.146;11.420;2023-02-01T08:57:34;6.13;;;3.25;;
63784;SDS011;49927;48.146;11.420;2023-02-01T08:59:59;7.70;;;4.18;;
63784;SDS011;49927;48.146;11.420;2023-02-01T09:02:25;7.95;;;3.78;;
63784;SDS011;49927;48.146;11.420;2023-02-01T09:04:52;7.20;;;3.30;;
63784;SDS011;49927;48.146;11.420;2023-02-01T09:07:18;8.77;;;3.40;;
63784;SDS011;49927;48.146;11.420;2023-02-01T09:09:43;5.13;;;3.45;;
63784;SDS011;49927;48.146;11.420;2023-02-01T09:12:09;6.40;;;3.95;;
63784;SDS011;49927;48.146;11.420;2023-02-01T09:14:35;6.88;;;3.92;;
63784;SDS011;49927;48.146;11.420;2023-02-01T09:17:00;7.00;;;3.60;;
63784;SDS011;49927;48.146;11.420;2023-02-01T09:19:26;5.25;;;3.03;;
63784;SDS011;49927;48.146;11.420;2023-02-01T09:21:52;6.68;;;3.28;;
63784;SDS011;49927;48.146;11.420;2023-02-01T09:24:18;5.80;;;3.15;;
63784;SDS011;49927;48.146;11.420;2023-02-01T09:26:44;5.47;;;3.10;;
63784;SDS011;49927;48.146;11.420;2023-02-01T09:29:09;4.68;;;2.85;;
63784;SDS011;49927;48.146;11.420;2023-02-01T09:31:35;4.43;;;2.88;;
63784;SDS011;49927;48.146;11.420;2023-02-01T09:34:00;6.15;;;2.95;;
63784;SDS011;49927;48.146;11.420;2023-02-01T09:36:26;3.90;;;2.30;;
63784;SDS011;49927;48.146;11.420;2023-02-01T09:38:53;6.32;;;3.47;;
63784;SDS011;49927;48.146;11.420;2023-02-01T09:41:32;4.55;;;2.97;;
63784;SDS011;49927;48.146;11.420;2023-02-01T09:44:03;4.80;;;3.05;;
63784;SDS011;49927;48.146;11.420;2023-02-01T09:46:36;5.47;;;2.58;;
63784;SDS011;49927;48.146;11.420;2023-02-01T09:49:02;7.63;;;3.75;;
63784;SDS011;49927;48.146;11.420;2023-02-01T11:20:09;5.90;;;4.35;;
63784;SDS011;49927;48.146;11.420;2023-02-01T11:22:38;6.30;;;4.00;;
63784;SDS011;49927;48.146;11.420;2023-02-01T11:25:13;7.88;;;3.60;;
63784;SDS011;49927;48.146;11.420;2023-02-01T11:27:40;13.68;;;3.70;;
63784;SDS011;49927;48.146;11.420;2023-02-01T11:30:06;8.63;;;3.95;;
63784;SDS011;49927;48.146;11.420;2023-02-01T11:32:40;6.95;;;3.92;;
63784;SDS011;49927;48.146;11.420;2023-02-01T11:35:06;7.85;;;3.85;;
63784;SDS011;49927;48.146;11.420;2023-02-01T11:37:34;6.70;;;4.07;;
63784;SDS011;49927;48.146;11.420;2023-02-01T11:40:02;7.22;;;3.90;;
63784;SDS011;49927;48.146;11.420;2023-02-01T11:42:30;6.10;;;3.67;;
63784;SDS011;49927;48.146;11.420;2023-02-01T11:47:43;7.38;;;3.95;;
63784;SDS011;49927;48.146;11.420;2023-02-01T11:50:12;6.05;;;3.78;;
63784;SDS011;49927;48.146;11.420;2023-02-01T11:52:43;7.25;;;4.28;;
63784;SDS011;49927;48.146;11.420;2023-02-01T11:55:26;6.25;;;3.92;;
63784;SDS011;49927;48.146;11.420;2023-02-01T11:58:04;13.73;;;4.78;;
63784;SDS011;49927;48.146;11.420;2023-02-01T12:00:39;6.63;;;4.32;;
63784;SDS011;49927;48.146;11.420;2023-02-01T12:03:29;5.82;;;4.18;;
63784;SDS011;49927;48.146;11.420;2023-02-01T12:06:05;8.20;;;4.97;;
63784;SDS011;49927;48.146;11.420;2023-02-01T12:08:46;9.95;;;5.78;;
63784;SDS011;49927;48.146;11.420;2023-02-01T12:11:26;15.13;;;6.93;;
63784;SDS011;49927;48.146;11.420;2023-02-01T12:14:04;18.15;;;7.53;;
63784;SDS011;49927;48.146;11.420;2023-02-01T12:16:37;14.82;;;7.55;;
63784;SDS011;49927;48.146;11.420;2023-02-01T12:19:17;32.28;;;13.15;;
63784;SDS011;49927;48.146;11.420;2023-02-01T12:22:05;15.73;;;7.68;;
63784;SDS011;49927;48.146;11.420;2023-02-01T12:24:42;12.80;;;5.38;;
63784;SDS011;49927;48.146;11.420;2023-02-01T12:30:27;11.85;;;4.32;;
63784;SDS011;49927;48.146;11.420;2023-02-01T12:33:03;8.27;;;4.35;;
63784;SDS011;49927;48.146;11.420;2023-02-01T12:35:47;10.95;;;4.32;;
63784;SDS011;49927;48.146;11.420;2023-02-01T12:38:26;6.40;;;4.00;;
63784;SDS011;49927;48.146;11.420;2023-02-01T12:41:02;7.40;;;3.55;;
63784;SDS011;49927;48.146;11.420;2023-02-01T12:43:36;8.82;;;3.70;;
63784;SDS011;49927;48.146;11.420;2023-02-01T12:46:06;17.70;;;4.25;;
63784;SDS011;49927;48.146;11.420;2023-02-01T12:48:35;13.15;;;4.45;;
63784;SDS011;49927;48.146;11.420;2023-02-01T12:51:05;8.52;;;3.75;;
63784;SDS011;49927;48.146;11.420;2023-02-01T12:53:35;10.35;;;3.53;;
63784;SDS011;49927;48.146;11.420;2023-02-01T12:56:09;11.43;;;4.07;;
63784;SDS011;49927;48.146;11.420;2023-02-01T12:58:38;8.43;;;4.38;;
63784;SDS011;49927;48.146;11.420;2023-02-01T13:01:06;4.97;;;3.20;;
63784;SDS011;49927;48.146;11.420;2023-02-01T13:03:38;9.98;;;4.57;;
63784;SDS011;49927;48.146;11.420;2023-02-01T13:06:08;9.93;;;4.00;;
63784;SDS011;49927;48.146;11.420;2023-02-01T13:08:38;5.68;;;3.50;;
63784;SDS011;49927;48.146;11.420;2023-02-01T13:11:08;7.93;;;4.00;;
63784;SDS011;49927;48.146;11.420;2023-02-01T13:13:39;7.25;;;3.97;;
63784;SDS011;49927;48.146;11.420;2023-02-01T13:16:13;10.25;;;3.50;;
63784;SDS011;49927;48.146;11.420;2023-02-01T13:18:41;13.05;;;4.07;;
63784;SDS011;49927;48.146;11.420;2023-02-01T13:21:10;8.38;;;3.85;;
63784;SDS011;49927;48.146;11.420;2023-02-01T13:23:39;5.28;;;3.72;;
63784;SDS011;49927;48.146;11.420;2023-02-01T13:26:05;7.43;;;3.60;;
63784;SDS011;49927;48.146;11.420;2023-02-01T13:28:34;6.15;;;4.43;;
63784;SDS011;49927;48.146;11.420;2023-02-01T13:31:09;5.90;;;3.22;;
63784;SDS011;49927;48.146;11.420;2023-02-01T13:34:03;7.93;;;3.80;;
63784;SDS011;49927;48.146;11.420;2023-02-01T13:36:52;6.07;;;3.85;;
63784;SDS011;49927;48.146;11.420;2023-02-01T13:42:30;6.75;;;3.78;;
63784;SDS011;49927;48.146;11.420;2023-02-01T13:44:59;8.18;;;3.88;;
63784;SDS011;49927;48.146;11.420;2023-02-01T13:47:27;12.25;;;4.57;;
63784;SDS011;49927;48.146;11.420;2023-02-01T13:49:55;6.10;;;3.35;;
63784;SDS011;49927;48.146;11.420;2023-02-01T13:52:32;8.10;;;4.15;;
63784;SDS011;49927;48.146;11.420;2023-02-01T13:55:13;5.75;;;4.15;;
63784;SDS011;49927;48.146;11.420;2023-02-01T13:57:41;10.00;;;3.78;;
63784;SDS011;49927;48.146;11.420;2023-02-01T14:00:08;7.30;;;3.45;;
63784;SDS011;49927;48.146;11.420;2023-02-01T14:02:49;7.38;;;3.58;;
63784;SDS011;49927;48.146;11.420;2023-02-01T14:08:23;9.52;;;3.95;;
63784;SDS011;49927;48.146;11.420;2023-02-01T14:11:01;6.18;;;3.30;;
63784;SDS011;49927;48.146;11.420;2023-02-01T14:13:38;5.88;;;3.42;;
63784;SDS011;49927;48.146;11.420;2023-02-01T14:16:11;8.57;;;3.33;;
63784;SDS011;49927;48.146;11.420;2023-02-01T14:21:33;3.33;;;2.60;;
63784;SDS011;49927;48.146;11.420;2023-02-01T14:24:02;6.72;;;3.55;;
63784;SDS011;49927;48.146;11.420;2023-02-01T14:26:41;5.50;;;3.72;;
63784;SDS011;49927;48.146;11.420;2023-02-01T14:31:54;5.15;;;3.38;;
63784;SDS011;49927;48.146;11.420;2023-02-01T14:34:28;4.88;;;3.15;;
63784;SDS011;49927;48.146;11.420;2023-02-01T14:36:57;5.80;;;3.22;;
63784;SDS011;49927;48.146;11.420;2023-02-01T14:39:28;8.55;;;3.00;;
63784;SDS011;49927;48.146;11.420;2023-02-01T14:41:57;9.27;;;3.13;;
63784;SDS011;49927;48.146;11.420;2023-02-01T14:44:32;13.63;;;5.63;;
63784;SDS011;49927;48.146;11.420;2023-02-01T14:47:03;7.35;;;3.78;;
63784;SDS011;49927;48.146;11.420;2023-02-01T14:49:47;6.80;;;4.43;;
63784;SDS011;49927;48.146;11.420;2023-02-01T14:52:15;7.65;;;3.83;;
63784;SDS011;49927;48.146;11.420;2023-02-01T14:54:44;4.93;;;3.47;;
63784;SDS011;49927;48.146;11.420;2023-02-01T14:57:13;5.47;;;3.13;;
63784;SDS011;49927;48.146;11.420;2023-02-01T14:59:41;5.15;;;3.03;;
63784;SDS011;49927;48.146;11.420;2023-02-01T15:02:15;7.13;;;3.10;;
63784;SDS011;49927;48.146;11.420;2023-02-01T15:04:43;9.75;;;3.08;;
63784;SDS011;49927;48.146;11.420;2023-02-01T15:07:11;4.13;;;2.90;;
63784;SDS011;49927;48.146;11.420;2023-02-01T15:09:38;12.05;;;3.30;;
63784;SDS011;49927;48.146;11.420;2023-02-01T15:12:16;5.38;;;3.13;;
63784;SDS011;49927;48.146;11.420;2023-02-01T15:14:43;11.45;;;3.83;;
63784;SDS011;49927;48.146;11.420;2023-02-01T15:17:17;4.05;;;2.80;;
63784;SDS011;49927;48.146;11.420;2023-02-01T15:19:52;6.28;;;2.58;;
63784;SDS011;49927;48.146;11.420;2023-02-01T15:22:18;5.38;;;3.15;;
63784;SDS011;49927;48.146;11.420;2023-02-01T15:24:51;5.53;;;3.13;;
63784;SDS011;49927;48.146;11.420;2023-02-01T15:27:18;5.85;;;2.60;;
63784;SDS011;49927;48.146;11.420;2023-02-01T15:29:44;6.95;;;2.60;;
63784;SDS011;49927;48.146;11.420;2023-02-01T15:32:16;7.53;;;3.30;;
63784;SDS011;49927;48.146;11.420;2023-02-01T15:34:53;4.70;;;2.33;;
63784;SDS011;49927;48.146;11.420;2023-02-01T15:37:20;5.20;;;2.72;;
63784;SDS011;49927;48.146;11.420;2023-02-01T15:40:05;7.00;;;2.72;;
63784;SDS011;49927;48.146;11.420;2023-02-01T15:42:49;6.07;;;3.05;;
63784;SDS011;49927;48.146;11.420;2023-02-01T15:45:16;8.15;;;2.75;;
63784;SDS011;49927;48.146;11.420;2023-02-01T15:47:46;7.70;;;3.35;;
63784;SDS011;49927;48.146;11.420;2023-02-01T15:50:12;3.17;;;2.30;;
63784;SDS011;49927;48.146;11.420;2023-02-01T15:52:39;5.45;;;3.10;;
63784;SDS011;49927;48.146;11.420;2023-02-01T15:55:07;6.15;;;2.83;;
63784;SDS011;49927;48.146;11.420;2023-02-01T15:57:35;5.32;;;3.00;;
63784;SDS011;49927;48.146;11.420;2023-02-01T16:00:04;6.40;;;3.00;;
63784;SDS011;49927;48.146;11.420;2023-02-01T16:02:33;4.72;;;2.80;;
63784;SDS011;49927;48.146;11.420;2023-02-01T16:05:00;9.70;;;3.35;;
63784;SDS011;49927;48.146;11.420;2023-02-01T16:07:27;5.72;;;2.65;;
63784;SDS011;49927;48.146;11.420;2023-02-01T16:09:54;9.35;;;2.95;;
63784;SDS011;49927;48.146;11.420;2023-02-01T16:12:23;6.07;;;2.80;;
63784;SDS011;49927;48.146;11.420;2023-02-01T16:14:54;12.32;;;2.92;;
63784;SDS011;49927;48.146;11.420;2023-02-01T16:17:21;11.20;;;2.22;;
63784;SDS011;49927;48.146;11.420;2023-02-01T16:19:46;5.95;;;2.88;;
63784;SDS011;49927;48.146;11.420;2023-02-01T16:22:11;4.65;;;1.90;;
63784;SDS011;49927;48.146;11.420;2023-02-01T16:24:37;6.45;;;2.47;;
63784;SDS011;49927;48.146;11.420;2023-02-01T16:27:02;8.55;;;3.10;;